createdAt,value
2023-04-16T00:02:08.116Z,27.50
2023-04-16T00:04:35.318Z,23.13
2023-04-16T00:07:02.301Z,28.90
2023-04-16T00:09:29.268Z,26.10
2023-04-16T00:11:56.363Z,25.55
2023-04-16T00:14:23.329Z,27.88
2023-04-16T00:16:50.480Z,27.52
2023-04-16T00:19:17.466Z,27.52
2023-04-16T00:21:44.671Z,24.85
2023-04-16T00:24:11.608Z,29.63
2023-04-16T00:26:38.524Z,22.27
2023-04-16T00:29:05.959Z,33.28
2023-04-16T00:31:34.103Z,22.20
2023-04-16T00:34:03.932Z,28.80
2023-04-16T00:36:30.959Z,37.72
2023-04-16T00:38:58.013Z,37.30
2023-04-16T00:41:25.050Z,30.35
2023-04-16T00:43:52.330Z,35.58
2023-04-16T00:46:21.267Z,30.15
2023-04-16T00:48:49.409Z,26.88
2023-04-16T00:51:18.272Z,32.38
2023-04-16T00:53:46.637Z,27.73
2023-04-16T00:56:13.734Z,28.60
2023-04-16T00:58:40.891Z,28.27
2023-04-16T01:01:07.938Z,39.95
2023-04-16T01:03:46.799Z,31.35
2023-04-16T01:06:14.800Z,31.48
2023-04-16T01:08:41.805Z,39.00
2023-04-16T01:11:10.947Z,32.83
2023-04-16T01:13:41.318Z,36.13
2023-04-16T01:16:10.691Z,35.08
2023-04-16T01:18:38.979Z,43.00
2023-04-16T01:21:06.602Z,32.05
2023-04-16T01:23:34.957Z,34.67
2023-04-16T01:26:02.736Z,33.80
2023-04-16T01:28:29.828Z,33.17
2023-04-16T01:30:56.918Z,34.78
2023-04-16T01:33:44.360Z,36.13
2023-04-16T01:36:12.577Z,38.05
2023-04-16T01:38:39.550Z,40.45
2023-04-16T01:41:06.521Z,37.38
2023-04-16T01:43:33.516Z,38.63
2023-04-16T01:46:24.410Z,39.45
2023-04-16T01:48:54.696Z,39.65
2023-04-16T01:51:22.127Z,44.67
2023-04-16T01:53:50.471Z,42.08
2023-04-16T01:56:17.510Z,51.33
2023-04-16T01:58:46.499Z,52.75
2023-04-16T02:01:15.374Z,42.78
2023-04-16T02:03:43.038Z,46.13
2023-04-16T02:06:10.106Z,45.90
2023-04-16T02:08:37.186Z,39.88
2023-04-16T02:11:04.090Z,42.40
2023-04-16T02:13:31.089Z,42.72
2023-04-16T02:15:58.371Z,53.63
2023-04-16T02:18:37.315Z,44.30
2023-04-16T02:21:06.525Z,41.42
2023-04-16T02:23:34.412Z,44.55
2023-04-16T02:26:03.620Z,58.92
2023-04-16T02:28:30.954Z,52.53
2023-04-16T02:30:59.132Z,54.47
2023-04-16T02:33:28.785Z,63.25
2023-04-16T02:36:02.097Z,53.45
2023-04-16T02:38:29.136Z,56.72
2023-04-16T02:40:56.220Z,47.47
2023-04-16T02:43:23.221Z,57.17
2023-04-16T02:45:50.150Z,49.50
2023-04-16T02:48:17.311Z,54.63
2023-04-16T02:50:44.271Z,52.50
2023-04-16T02:53:11.522Z,52.38
2023-04-16T02:55:38.584Z,55.03
2023-04-16T02:58:05.454Z,58.35
2023-04-16T03:00:32.538Z,51.70
2023-04-16T03:02:59.648Z,50.53
2023-04-16T03:05:26.712Z,51.67
2023-04-16T03:07:56.652Z,58.90
2023-04-16T03:10:24.251Z,54.40
2023-04-16T03:12:51.444Z,55.78
2023-04-16T03:15:18.562Z,49.88
2023-04-16T03:17:45.668Z,56.63
2023-04-16T03:20:14.403Z,51.03
2023-04-16T03:22:41.775Z,56.35
2023-04-16T03:25:09.502Z,53.35
2023-04-16T03:27:36.490Z,56.40
2023-04-16T03:30:04.791Z,57.55
2023-04-16T03:32:33.885Z,58.08
2023-04-16T03:35:03.669Z,51.00
2023-04-16T03:37:30.775Z,55.28
2023-04-16T03:39:57.986Z,57.15
2023-04-16T03:42:25.011Z,55.90
2023-04-16T03:44:53.670Z,66.25
2023-04-16T03:47:22.094Z,63.25
2023-04-16T03:49:51.023Z,55.90
2023-04-16T03:52:18.865Z,54.63
2023-04-16T03:54:45.855Z,55.15
2023-04-16T03:57:39.081Z,61.50
2023-04-16T04:00:11.445Z,60.65
2023-04-16T04:02:41.559Z,59.47
2023-04-16T04:05:15.207Z,66.80
2023-04-16T04:07:43.399Z,61.17
2023-04-16T04:10:10.679Z,57.20
2023-04-16T04:12:40.939Z,65.45
2023-04-16T04:15:08.882Z,67.30
2023-04-16T04:17:35.931Z,63.63
2023-04-16T04:20:03.147Z,64.40
2023-04-16T04:22:31.663Z,70.50
2023-04-16T04:24:58.926Z,76.57
2023-04-16T04:27:28.364Z,71.25
2023-04-16T04:29:56.435Z,75.53
2023-04-16T04:32:23.593Z,64.97
2023-04-16T04:34:50.679Z,64.68
2023-04-16T04:37:17.733Z,56.95
2023-04-16T04:39:44.799Z,64.80
2023-04-16T04:42:12.747Z,67.20
2023-04-16T04:44:40.278Z,59.85
2023-04-16T04:47:08.525Z,62.85
2023-04-16T04:49:35.463Z,64.85
2023-04-16T04:52:03.399Z,65.82
2023-04-16T04:54:32.967Z,65.53
2023-04-16T04:57:01.272Z,60.30
2023-04-16T04:59:29.789Z,70.07
2023-04-16T05:01:57.144Z,60.38
2023-04-16T05:04:24.088Z,56.03
2023-04-16T05:06:51.057Z,60.20
2023-04-16T05:09:18.130Z,64.90
2023-04-16T05:11:45.058Z,65.20
2023-04-16T05:14:12.049Z,74.57
2023-04-16T05:16:39.088Z,63.55
2023-04-16T05:19:06.140Z,68.05
2023-04-16T05:21:33.802Z,56.70
2023-04-16T05:24:00.873Z,59.85
2023-04-16T05:26:27.811Z,54.22
2023-04-16T05:28:54.758Z,58.83
2023-04-16T05:31:21.957Z,65.22
2023-04-16T05:33:48.967Z,65.82
2023-04-16T05:36:15.914Z,66.95
2023-04-16T05:38:42.858Z,65.50
2023-04-16T05:41:09.763Z,59.45
2023-04-16T05:43:36.724Z,52.60
2023-04-16T05:46:03.696Z,57.95
2023-04-16T05:48:31.112Z,65.93
2023-04-16T05:50:58.041Z,63.25
2023-04-16T05:53:25.085Z,59.00
2023-04-16T05:55:52.064Z,58.55
2023-04-16T05:58:19.004Z,62.78
2023-04-16T06:00:45.955Z,64.38
2023-04-16T06:03:13.088Z,52.97
2023-04-16T06:05:40.418Z,58.35
2023-04-16T06:08:07.396Z,61.13
2023-04-16T06:10:34.350Z,54.35
2023-04-16T06:13:01.304Z,59.47
2023-04-16T06:15:28.336Z,62.67
2023-04-16T06:17:56.173Z,53.55
2023-04-16T06:20:23.140Z,54.58
2023-04-16T06:22:50.233Z,60.40
2023-04-16T06:25:18.192Z,61.58
2023-04-16T06:27:45.365Z,60.60
2023-04-16T06:30:16.478Z,54.47
2023-04-16T06:32:44.354Z,60.58
2023-04-16T06:35:11.620Z,61.00
2023-04-16T06:37:39.070Z,60.67
2023-04-16T06:40:06.780Z,69.50
2023-04-16T06:42:33.756Z,59.63
2023-04-16T06:45:00.736Z,69.43
2023-04-16T06:47:27.743Z,61.40
2023-04-16T06:49:54.679Z,67.03
2023-04-16T06:52:21.657Z,67.93
2023-04-16T06:54:48.862Z,68.13
2023-04-16T06:57:16.308Z,63.28
2023-04-16T06:59:43.365Z,65.70
2023-04-16T07:02:13.176Z,66.40
2023-04-16T07:04:40.192Z,65.93
2023-04-16T07:07:07.195Z,64.07
2023-04-16T07:09:34.142Z,67.10
2023-04-16T07:12:01.223Z,62.65
2023-04-16T07:14:28.184Z,64.18
2023-04-16T07:16:55.182Z,66.07
2023-04-16T07:19:22.245Z,73.00
2023-04-16T07:21:49.267Z,66.00
2023-04-16T07:24:16.530Z,73.28
2023-04-16T07:26:43.519Z,65.45
2023-04-16T07:29:10.731Z,70.57
2023-04-16T07:31:38.718Z,69.15
2023-04-16T07:34:05.791Z,72.57
2023-04-16T07:36:32.896Z,66.15
2023-04-16T07:38:59.862Z,73.00
2023-04-16T07:41:26.811Z,60.42
2023-04-16T07:43:53.778Z,59.60
2023-04-16T07:46:21.163Z,55.90
2023-04-16T07:48:49.073Z,69.97
2023-04-16T07:51:16.337Z,60.38
2023-04-16T07:53:43.630Z,62.90
2023-04-16T07:56:10.804Z,61.60
2023-04-16T07:58:37.736Z,54.97
2023-04-16T08:01:04.745Z,53.58
2023-04-16T08:05:58.937Z,57.90
2023-04-16T08:08:26.124Z,57.10
2023-04-16T08:10:55.948Z,53.83
2023-04-16T08:13:24.055Z,55.40
2023-04-16T08:15:51.280Z,57.78
2023-04-16T08:18:19.193Z,53.28
2023-04-16T08:20:46.180Z,56.63
2023-04-16T08:23:13.106Z,71.50
2023-04-16T08:25:40.311Z,54.00
2023-04-16T08:28:07.261Z,59.80
2023-04-16T08:30:34.331Z,64.25
2023-04-16T08:33:01.702Z,66.97
2023-04-16T08:35:28.787Z,62.40
2023-04-16T08:37:57.846Z,66.32
2023-04-16T08:40:28.749Z,60.00
2023-04-16T08:42:59.791Z,63.70
2023-04-16T08:45:27.767Z,57.53
2023-04-16T08:47:54.742Z,63.65
2023-04-16T08:50:26.735Z,64.10
2023-04-16T08:52:59.444Z,58.83
2023-04-16T08:55:40.932Z,59.83
2023-04-16T08:58:22.964Z,58.85
2023-04-16T09:00:50.536Z,56.17
2023-04-16T09:03:20.185Z,62.95
2023-04-16T09:05:48.272Z,63.35
2023-04-16T09:08:15.319Z,53.72
2023-04-16T09:10:43.601Z,55.15
2023-04-16T09:13:11.724Z,48.38
2023-04-16T09:15:39.919Z,52.97
2023-04-16T09:18:06.926Z,43.30
2023-04-16T09:20:34.417Z,49.08
2023-04-16T09:23:01.371Z,54.53
2023-04-16T09:25:34.023Z,48.15
2023-04-16T09:28:01.694Z,47.25
2023-04-16T09:30:28.997Z,42.78
2023-04-16T09:33:22.072Z,49.78
2023-04-16T09:35:53.347Z,49.50
2023-04-16T09:38:21.191Z,38.15
2023-04-16T09:40:48.266Z,42.13
2023-04-16T09:43:18.240Z,38.85
2023-04-16T09:45:52.726Z,47.97
2023-04-16T09:48:33.324Z,37.25
2023-04-16T09:51:01.310Z,45.63
2023-04-16T09:53:31.016Z,41.45
2023-04-16T09:56:06.744Z,40.00
2023-04-16T10:01:08.066Z,42.72
2023-04-16T10:03:37.812Z,37.45
2023-04-16T10:06:14.645Z,37.95
2023-04-16T10:08:51.047Z,35.05
2023-04-16T10:11:20.469Z,35.97
2023-04-16T10:13:47.520Z,32.03
2023-04-16T10:16:14.666Z,39.88
2023-04-16T10:18:44.446Z,39.97
2023-04-16T10:21:12.764Z,38.13
2023-04-16T10:23:40.589Z,30.63
2023-04-16T10:26:07.803Z,48.42
2023-04-16T10:28:38.036Z,31.30
2023-04-16T10:31:08.441Z,29.63
2023-04-16T10:33:40.236Z,33.55
2023-04-16T10:36:23.870Z,29.95
2023-04-16T10:38:52.766Z,28.23
2023-04-16T10:41:22.976Z,30.33
2023-04-16T10:43:51.664Z,33.15
2023-04-16T10:46:34.180Z,30.35
2023-04-16T10:49:03.859Z,32.85
2023-04-16T10:51:36.313Z,32.45
2023-04-16T10:54:19.434Z,28.77
2023-04-16T10:56:47.405Z,31.73
2023-04-16T10:59:18.456Z,29.60
2023-04-16T11:01:48.699Z,28.58
2023-04-16T11:04:21.922Z,32.33
2023-04-16T11:07:11.616Z,35.33
2023-04-16T11:09:50.541Z,30.60
2023-04-16T11:12:39.575Z,29.88
2023-04-16T11:15:08.152Z,29.45
2023-04-16T11:17:50.471Z,24.30
2023-04-16T11:20:28.357Z,29.13
2023-04-16T11:22:57.843Z,27.48
2023-04-16T11:25:29.512Z,31.08
2023-04-16T11:27:59.119Z,26.27
2023-04-16T11:30:36.956Z,27.70
2023-04-16T11:33:08.310Z,26.58
2023-04-16T11:35:35.887Z,22.33
2023-04-16T11:38:02.949Z,28.05
2023-04-16T11:40:31.763Z,24.75
2023-04-16T11:43:28.431Z,23.13
2023-04-16T11:48:47.032Z,23.20
2023-04-16T11:51:14.533Z,23.67
2023-04-16T11:53:54.449Z,23.98
2023-04-16T11:56:34.336Z,30.52
2023-04-16T11:59:15.692Z,23.30
2023-04-16T12:01:57.224Z,27.13
2023-04-16T12:04:27.073Z,32.80
2023-04-16T12:07:14.369Z,28.83
2023-04-16T12:09:43.649Z,25.40
2023-04-16T12:12:32.262Z,21.85
2023-04-16T12:15:03.130Z,24.23
2023-04-16T12:17:34.048Z,19.55
2023-04-16T12:20:13.061Z,23.40
2023-04-16T12:22:46.009Z,27.95
2023-04-16T12:25:14.695Z,25.30
2023-04-16T12:27:53.394Z,30.05
2023-04-16T12:30:23.652Z,21.20
2023-04-16T12:32:53.625Z,24.25
2023-04-16T12:35:35.768Z,23.15
2023-04-16T12:38:03.700Z,29.00
2023-04-16T12:40:30.782Z,23.85
2023-04-16T12:42:57.850Z,27.85
2023-04-16T12:45:25.164Z,20.77
2023-04-16T12:47:52.278Z,23.52
2023-04-16T12:50:19.338Z,27.38
2023-04-16T12:52:46.425Z,25.30
2023-04-16T12:55:14.334Z,25.50
2023-04-16T12:57:41.514Z,24.73
2023-04-16T13:00:12.685Z,31.77
2023-04-16T13:02:40.102Z,27.02
2023-04-16T13:05:08.255Z,29.85
2023-04-16T13:07:35.399Z,30.73
2023-04-16T13:10:02.800Z,23.63
2023-04-16T13:12:29.911Z,22.80
2023-04-16T13:14:56.854Z,23.85
2023-04-16T13:17:23.851Z,25.50
2023-04-16T13:19:50.844Z,21.20
2023-04-16T13:22:17.835Z,22.30
2023-04-16T13:24:44.804Z,24.73
2023-04-16T13:27:12.790Z,25.20
2023-04-16T13:29:39.754Z,28.25
2023-04-16T13:32:06.716Z,25.42
2023-04-16T13:34:33.661Z,22.70
2023-04-16T13:37:00.860Z,28.65
2023-04-16T13:39:27.835Z,22.08
2023-04-16T13:41:54.807Z,22.55
2023-04-16T13:44:21.874Z,20.60
2023-04-16T13:46:48.904Z,23.33
2023-04-16T13:49:16.191Z,25.25
2023-04-16T13:51:44.888Z,25.73
2023-04-16T13:54:11.952Z,23.20
2023-04-16T13:56:39.553Z,23.17
2023-04-16T13:59:06.730Z,23.80
2023-04-16T14:01:33.716Z,19.80
2023-04-16T14:04:06.298Z,21.38
2023-04-16T14:06:34.739Z,26.42
2023-04-16T14:09:02.110Z,24.90
2023-04-16T14:11:29.194Z,18.95
2023-04-16T14:13:56.213Z,23.75
2023-04-16T14:16:23.462Z,26.42
2023-04-16T14:18:51.855Z,22.80
2023-04-16T14:21:19.303Z,29.23
2023-04-16T14:23:46.831Z,21.05
2023-04-16T14:26:14.449Z,18.20
2023-04-16T14:28:41.899Z,24.33
2023-04-16T14:31:08.996Z,20.42
2023-04-16T14:33:36.849Z,21.40
2023-04-16T14:36:04.177Z,21.55
2023-04-16T14:38:32.021Z,19.17
2023-04-16T14:41:00.287Z,21.05
2023-04-16T14:43:27.411Z,21.95
2023-04-16T14:45:54.483Z,20.75
2023-04-16T14:48:22.121Z,19.05
2023-04-16T14:50:49.167Z,25.25
2023-04-16T14:53:16.310Z,28.65
2023-04-16T14:55:43.279Z,19.45
2023-04-16T14:58:10.856Z,21.92
2023-04-16T15:00:38.134Z,25.27
2023-04-16T15:03:05.954Z,19.70
2023-04-16T15:05:33.266Z,21.35
2023-04-16T15:08:00.589Z,22.35
2023-04-16T15:10:27.993Z,22.65
2023-04-16T15:12:54.930Z,18.20
2023-04-16T15:15:21.958Z,19.13
2023-04-16T15:17:51.001Z,24.67
2023-04-16T15:20:18.098Z,23.13
2023-04-16T15:22:45.211Z,20.27
2023-04-16T15:25:12.466Z,18.40
2023-04-16T15:27:39.464Z,17.98
2023-04-16T15:30:07.457Z,21.23
2023-04-16T15:32:34.428Z,17.83
2023-04-16T15:35:03.502Z,19.60
2023-04-16T15:37:31.273Z,19.40
2023-04-16T15:39:58.238Z,23.45
2023-04-16T15:42:25.231Z,24.25
2023-04-16T15:44:52.224Z,21.63
2023-04-16T15:47:19.219Z,20.90
2023-04-16T15:49:46.215Z,24.50
2023-04-16T15:52:13.558Z,21.35
2023-04-16T15:54:40.900Z,19.08
2023-04-16T15:57:07.853Z,17.17
2023-04-16T15:59:34.798Z,22.92
2023-04-16T16:02:02.090Z,21.55
2023-04-16T16:04:29.233Z,20.17
2023-04-16T16:06:56.982Z,18.25
2023-04-16T16:09:27.971Z,19.15
2023-04-16T16:11:55.712Z,19.00
2023-04-16T16:14:23.228Z,23.13
2023-04-16T16:16:50.256Z,22.52
2023-04-16T16:19:17.584Z,19.83
2023-04-16T16:21:44.543Z,18.60
2023-04-16T16:24:11.513Z,20.38
2023-04-16T16:26:38.452Z,22.90
2023-04-16T16:29:05.644Z,20.38
2023-04-16T16:31:32.737Z,16.00
2023-04-16T16:33:59.760Z,24.75
2023-04-16T16:36:27.435Z,22.10
2023-04-16T16:38:55.204Z,24.25
2023-04-16T16:41:22.514Z,26.10
2023-04-16T16:43:50.305Z,18.30
2023-04-16T16:46:17.324Z,23.20
2023-04-16T16:48:44.354Z,19.88
2023-04-16T16:51:11.373Z,22.48
2023-04-16T16:53:38.442Z,22.67
2023-04-16T16:56:05.908Z,18.80
2023-04-16T16:58:32.913Z,21.08
2023-04-16T17:00:59.955Z,22.08
2023-04-16T17:03:27.182Z,20.83
2023-04-16T17:05:54.214Z,20.00
2023-04-16T17:08:21.279Z,20.60
2023-04-16T17:10:48.329Z,25.63
2023-04-16T17:13:19.629Z,20.15
2023-04-16T17:15:47.316Z,20.88
2023-04-16T17:18:14.345Z,21.25
2023-04-16T17:20:41.282Z,23.88
2023-04-16T17:23:08.350Z,20.70
2023-04-16T17:25:35.654Z,18.17
2023-04-16T17:28:03.341Z,16.98
2023-04-16T17:30:31.728Z,20.35
2023-04-16T17:32:58.822Z,24.73
2023-04-16T17:35:26.135Z,20.90
2023-04-16T17:37:53.063Z,18.38
2023-04-16T17:40:20.049Z,19.73
2023-04-16T17:42:48.786Z,17.67
2023-04-16T17:45:16.106Z,24.80
2023-04-16T17:47:44.477Z,18.63
2023-04-16T17:50:12.444Z,25.15
2023-04-16T17:52:39.586Z,20.92
2023-04-16T17:55:07.665Z,21.90
2023-04-16T17:57:34.748Z,20.88
2023-04-16T18:00:02.045Z,18.58
2023-04-16T18:02:40.917Z,21.10
2023-04-16T18:05:09.000Z,19.35
2023-04-16T18:07:36.488Z,21.65
2023-04-16T18:10:03.672Z,21.45
2023-04-16T18:12:30.846Z,22.10
2023-04-16T18:14:57.858Z,25.02
2023-04-16T18:17:25.020Z,31.73
2023-04-16T18:19:52.380Z,20.40
2023-04-16T18:22:19.356Z,23.25
2023-04-16T18:24:46.821Z,23.58
2023-04-16T18:27:13.809Z,24.00
2023-04-16T18:29:40.907Z,22.77
2023-04-16T18:32:11.781Z,19.30
2023-04-16T18:34:39.376Z,20.08
2023-04-16T18:37:06.989Z,21.63
2023-04-16T18:39:34.091Z,24.23
2023-04-16T18:42:01.580Z,21.48
2023-04-16T18:44:28.551Z,26.38
2023-04-16T18:46:55.682Z,23.58
2023-04-16T18:49:22.707Z,25.73
2023-04-16T18:51:49.688Z,24.73
2023-04-16T18:54:16.753Z,24.02
2023-04-16T18:56:43.726Z,25.88
2023-04-16T18:59:10.976Z,23.73
2023-04-16T19:01:38.148Z,25.33
2023-04-16T19:04:05.577Z,27.55
2023-04-16T19:06:32.756Z,26.63
2023-04-16T19:08:59.790Z,25.70
2023-04-16T19:11:27.116Z,32.38
2023-04-16T19:13:54.111Z,30.67
2023-04-16T19:16:21.124Z,24.60
2023-04-16T19:18:48.162Z,28.05
2023-04-16T19:21:15.078Z,29.13
2023-04-16T19:23:42.023Z,22.70
2023-04-16T19:26:08.983Z,29.65
2023-04-16T19:28:35.966Z,32.20
2023-04-16T19:31:02.922Z,34.08
2023-04-16T19:33:29.924Z,34.92
2023-04-16T19:35:56.978Z,31.63
2023-04-16T19:38:23.930Z,31.73
2023-04-16T19:40:50.949Z,30.23
2023-04-16T19:43:17.909Z,33.05
2023-04-16T19:45:46.586Z,29.77
2023-04-16T19:48:14.508Z,41.83
2023-04-16T19:50:42.739Z,35.53
2023-04-16T19:53:11.174Z,36.42
2023-04-16T19:55:42.048Z,36.50
2023-04-16T19:58:09.598Z,33.25
2023-04-16T20:00:38.886Z,27.95
2023-04-16T20:03:06.446Z,35.92
2023-04-16T20:05:33.582Z,33.25
2023-04-16T20:08:00.766Z,29.80
2023-04-16T20:10:27.877Z,33.95
2023-04-16T20:12:54.844Z,39.63
2023-04-16T20:15:22.086Z,34.60
2023-04-16T20:17:49.103Z,32.30
2023-04-16T20:20:16.470Z,31.58
2023-04-16T20:22:43.885Z,32.78
2023-04-16T20:25:11.470Z,34.88
2023-04-16T20:27:38.498Z,36.40
2023-04-16T20:30:06.486Z,33.47
2023-04-16T20:32:33.584Z,33.50
2023-04-16T20:35:01.992Z,32.97
2023-04-16T20:37:29.202Z,35.58
2023-04-16T20:39:56.296Z,38.08
2023-04-16T20:42:26.209Z,34.15
2023-04-16T20:44:56.226Z,30.80
2023-04-16T20:47:23.377Z,34.75
2023-04-16T20:49:50.595Z,32.15
2023-04-16T20:52:17.663Z,32.75
2023-04-16T20:54:44.635Z,31.98
2023-04-16T20:57:11.545Z,37.00
2023-04-16T20:59:38.600Z,30.42
2023-04-16T21:02:06.311Z,33.75
2023-04-16T21:04:33.446Z,31.90
2023-04-16T21:07:03.179Z,30.70
2023-04-16T21:09:31.259Z,29.30
2023-04-16T21:11:58.295Z,31.23
2023-04-16T21:14:25.302Z,27.75
2023-04-16T21:16:52.241Z,30.20
2023-04-16T21:19:19.155Z,29.67
2023-04-16T21:21:46.625Z,37.08
2023-04-16T21:24:13.696Z,28.23
2023-04-16T21:26:40.709Z,38.08
2023-04-16T21:29:07.708Z,32.63
2023-04-16T21:31:34.705Z,31.77
2023-04-16T21:34:01.715Z,33.90
2023-04-16T21:36:29.213Z,37.00
2023-04-16T21:38:56.177Z,35.78
2023-04-16T21:41:23.219Z,36.00
2023-04-16T21:43:50.379Z,36.70
2023-04-16T21:46:17.338Z,36.05
2023-04-16T21:48:44.955Z,34.05
2023-04-16T21:51:11.932Z,38.58
2023-04-16T21:53:39.097Z,38.28
2023-04-16T21:56:07.140Z,34.88
2023-04-16T21:58:34.042Z,36.15
2023-04-16T22:01:01.027Z,36.80
2023-04-16T22:03:30.359Z,34.78
2023-04-16T22:06:01.048Z,34.85
2023-04-16T22:08:29.218Z,34.88
2023-04-16T22:11:01.911Z,38.42
2023-04-16T22:13:32.564Z,39.17
2023-04-16T22:16:01.405Z,37.53
2023-04-16T22:18:32.831Z,38.17
2023-04-16T22:21:00.295Z,35.33
2023-04-16T22:23:27.460Z,35.45
2023-04-16T22:25:56.991Z,39.42
2023-04-16T22:28:24.198Z,43.03
2023-04-16T22:30:51.310Z,38.53
2023-04-16T22:33:18.428Z,39.03
2023-04-16T22:35:46.191Z,42.53
2023-04-16T22:38:13.386Z,37.65
2023-04-16T22:40:40.608Z,38.90
2023-04-16T22:43:07.657Z,37.25
2023-04-16T22:45:34.720Z,43.05
2023-04-16T22:48:01.742Z,37.05
2023-04-16T22:50:31.093Z,41.10
2023-04-16T22:52:58.137Z,41.85
2023-04-16T22:55:25.101Z,35.05
2023-04-16T22:57:52.062Z,37.83
2023-04-16T23:00:19.356Z,37.92
2023-04-16T23:02:46.494Z,39.17
2023-04-16T23:05:13.593Z,41.75
2023-04-16T23:07:40.558Z,39.65
2023-04-16T23:10:08.648Z,38.85
2023-04-16T23:12:37.489Z,35.10
2023-04-16T23:15:06.606Z,40.17
2023-04-16T23:17:34.937Z,40.00
2023-04-16T23:20:02.242Z,43.65
2023-04-16T23:22:29.327Z,45.42
2023-04-16T23:24:56.418Z,44.20
2023-04-16T23:27:23.522Z,38.20
2023-04-16T23:29:50.732Z,40.20
2023-04-16T23:32:17.836Z,46.47
2023-04-16T23:34:44.823Z,45.85
2023-04-16T23:37:11.930Z,43.17
2023-04-16T23:39:39.007Z,40.97
2023-04-16T23:42:06.169Z,51.20
2023-04-16T23:44:33.266Z,41.88
2023-04-16T23:47:00.488Z,44.08
2023-04-16T23:49:27.668Z,43.05
2023-04-16T23:51:54.642Z,45.13
2023-04-16T23:54:22.087Z,45.95
2023-04-16T23:56:49.124Z,45.67
2023-04-16T23:59:16.836Z,50.33
